Time;durP1;ratioP1;P1;durP2;ratioP2;P2;SDS_P1;SDS_P2;PMS_P1;PMS_P2;Temp;Humidity;BMP_temperature;BMP_pressure;BME280_temperature;BME280_humidity;BME280_pressure;Samples;Min_cycle;Max_cycle;Signal;HPM_P1;HPM_P2
2022/03/28 00:01:16;;;;;;;;;43.50;35.50;;;;;16.60;29.63;102034.56;4976800;28;45325;-62
2022/03/28 00:03:42;;;;;;;;;39.25;31.75;;;;;16.55;29.25;102025.81;4976573;28;45612;-62
2022/03/28 00:06:07;;;;;;;;;39.50;31.25;;;;;16.53;29.58;102031.16;4977918;28;45300;-62
2022/03/28 00:08:33;;;;;;;;;36.50;30.25;;;;;16.50;29.65;102025.03;4975597;28;45296;-62
2022/03/28 00:10:59;;;;;;;;;36.50;33.25;;;;;16.45;29.50;102011.81;4977683;28;45343;-61
2022/03/28 00:13:24;;;;;;;;;36.50;33.00;;;;;16.43;29.56;102016.31;4977658;28;45514;-61
2022/03/28 00:15:49;;;;;;;;;35.00;30.50;;;;;16.40;29.77;102019.91;4977842;28;45368;-61
2022/03/28 00:18:15;;;;;;;;;39.75;34.75;;;;;16.38;29.53;102015.53;4967351;28;45430;-63
2022/03/28 00:20:40;;;;;;;;;32.50;29.75;;;;;16.33;29.63;102012.94;4977595;28;45225;-62
2022/03/28 00:23:06;;;;;;;;;41.00;33.50;;;;;16.28;29.69;102000.69;4977393;28;45170;-62
2022/03/28 00:25:32;;;;;;;;;35.50;33.00;;;;;16.28;30.15;102011.28;4977311;28;45477;-62
2022/03/28 00:27:58;;;;;;;;;41.00;33.50;;;;;16.25;29.84;102007.78;4977361;28;45324;-62
2022/03/28 00:30:23;;;;;;;;;44.00;33.75;;;;;16.23;29.87;102008.72;4976436;28;45290;-63
2022/03/28 00:32:49;;;;;;;;;40.50;33.50;;;;;16.17;30.06;101996.41;4977441;28;45353;-62
2022/03/28 00:35:14;;;;;;;;;40.50;35.50;;;;;16.15;30.34;102002.66;4977254;28;46341;-63
2022/03/28 00:37:41;;;;;;;;;39.75;32.25;;;;;16.12;30.34;102002.72;4977133;28;45453;-62
2022/03/28 00:40:08;;;;;;;;;37.25;32.25;;;;;16.11;30.03;101999.19;4977308;28;45271;-62
2022/03/28 00:42:34;;;;;;;;;32.00;28.00;;;;;16.09;30.24;101998.34;4977234;28;45435;-63
2022/03/28 00:44:59;;;;;;;;;33.50;31.75;;;;;16.05;30.03;101994.88;4969767;28;47254;-63
2022/03/28 00:47:25;;;;;;;;;42.25;33.50;;;;;16.04;30.60;101994.91;4956413;28;45413;-63
2022/03/28 00:49:50;;;;;;;;;44.50;35.25;;;;;15.99;30.50;101983.50;4957925;28;45255;-62
2022/03/28 00:52:16;;;;;;;;;39.25;33.25;;;;;15.95;30.35;101985.34;4957617;28;45287;-63
2022/03/28 00:54:43;;;;;;;;;46.50;36.25;;;;;15.95;30.44;101981.78;4956212;28;47713;-63
2022/03/28 00:57:08;;;;;;;;;41.75;35.50;;;;;15.92;30.40;101982.72;4957672;28;45503;-62
2022/03/28 00:59:35;;;;;;;;;39.00;34.75;;;;;15.88;30.96;101989.84;4957668;28;45264;-62
2022/03/28 01:02:02;;;;;;;;;44.50;36.00;;;;;15.86;30.40;101989.00;4957793;28;45303;-63
2022/03/28 01:04:28;;;;;;;;;44.50;35.50;;;;;15.81;30.81;101982.00;4957485;28;47479;-62
2022/03/28 01:06:54;;;;;;;;;39.75;33.00;;;;;15.81;31.08;101984.63;4957233;28;45442;-63
2022/03/28 01:09:19;;;;;;;;;38.00;33.00;;;;;15.77;30.76;101982.06;4957504;28;45236;-62
2022/03/28 01:11:46;;;;;;;;;35.25;30.00;;;;;15.72;31.00;101975.06;4957259;28;45284;-62
2022/03/28 01:14:12;;;;;;;;;35.75;32.25;;;;;15.71;30.81;101978.59;4957366;28;46036;-62
2022/03/28 01:19:23;;;;;;;;;39.50;33.75;;;;;15.65;31.36;101974.28;4968954;28;45220;-62
2022/03/28 01:21:49;;;;;;;;;47.25;36.50;;;;;15.61;31.29;101967.31;4978103;28;45554;-62
2022/03/28 01:24:15;;;;;;;;;44.50;36.00;;;;;15.57;30.94;101966.47;4978208;28;46387;-62
2022/03/28 01:26:40;;;;;;;;;43.00;35.50;;;;;15.59;31.51;101969.09;4979639;28;45348;-63
2022/03/28 01:29:06;;;;;;;;;48.25;37.75;;;;;15.55;31.09;101967.41;4978617;28;45334;-62
2022/03/28 01:31:32;;;;;;;;;41.75;34.50;;;;;15.53;31.04;101963.88;4979718;28;45303;-62
2022/03/28 01:33:57;;;;;;;;;47.50;38.00;;;;;15.50;31.61;101959.50;4978355;28;48011;-62
2022/03/28 01:36:29;;;;;;;;;43.50;37.75;;;;;15.48;31.48;101953.34;4979624;28;45259;-62
2022/03/28 01:38:54;;;;;;;;;42.00;36.75;;;;;15.46;31.68;101951.63;4978165;28;45272;-62
2022/03/28 01:41:20;;;;;;;;;44.00;37.50;;;;;15.42;31.75;101949.03;4979640;28;45447;-62
2022/03/28 01:43:45;;;;;;;;;45.75;39.50;;;;;15.40;31.68;101949.97;4984301;28;46090;-63
2022/03/28 01:46:10;;;;;;;;;46.50;39.00;;;;;15.37;31.55;101950.00;4964753;27;45427;-63
2022/03/28 01:48:36;;;;;;;;;40.25;35.25;;;;;15.36;31.95;101956.22;4942791;28;45277;-63
2022/03/28 01:51:01;;;;;;;;;42.00;36.25;;;;;15.34;31.69;101955.34;4958670;28;46054;-62
2022/03/28 01:53:26;;;;;;;;;54.50;40.50;;;;;15.28;31.91;101943.94;4958452;28;46896;-62
2022/03/28 01:55:52;;;;;;;;;43.50;36.50;;;;;15.27;31.72;101947.50;4959833;28;45284;-62
2022/03/28 01:58:17;;;;;;;;;43.75;35.50;;;;;15.25;31.66;101951.06;4960023;28;45283;-62
2022/03/28 02:00:43;;;;;;;;;42.75;36.75;;;;;15.21;31.78;101944.94;4959885;28;45282;-63
2022/03/28 02:03:09;;;;;;;;;50.50;38.25;;;;;15.19;31.78;101949.34;4959824;28;45421;-62
2022/03/28 02:05:34;;;;;;;;;42.50;38.25;;;;;15.16;31.79;101944.13;4959848;28;45189;-62
2022/03/28 02:07:59;;;;;;;;;46.75;37.75;;;;;15.06;32.22;101937.22;4958499;28;45268;-62
2022/03/28 02:10:25;;;;;;;;;42.25;37.25;;;;;15.10;31.76;101944.19;4959455;28;45208;-62
2022/03/28 02:12:52;;;;;;;;;49.25;38.50;;;;;15.08;31.92;101940.69;4959674;28;46154;-62
2022/03/28 02:15:18;;;;;;;;;42.75;37.50;;;;;15.00;32.06;101930.22;4959681;28;45362;-62
2022/03/28 02:17:44;;;;;;;;;46.00;38.00;;;;;15.03;32.12;101942.53;4959830;28;45383;-63
2022/03/28 02:20:10;;;;;;;;;47.25;38.25;;;;;14.99;32.24;101946.13;4977319;28;45304;-62
2022/03/28 02:22:37;;;;;;;;;45.50;36.75;;;;;14.95;32.41;101945.28;4978850;28;45361;-63
2022/03/28 02:25:04;;;;;;;;;50.50;38.50;;;;;14.93;32.13;101936.47;4978815;28;45362;-62
2022/03/28 02:27:30;;;;;;;;;43.50;36.75;;;;;14.90;32.37;101933.88;4979132;28;45469;-63
2022/03/28 02:29:55;;;;;;;;;45.50;37.50;;;;;14.87;32.24;101940.09;4977517;28;45422;-62
2022/03/28 02:32:20;;;;;;;;;49.00;38.50;;;;;14.85;32.44;101936.59;4978556;28;46398;-63
2022/03/28 02:34:46;;;;;;;;;47.75;37.25;;;;;14.83;32.63;101937.50;4977653;27;45182;-62
2022/03/28 02:37:11;;;;;;;;;49.00;37.25;;;;;14.77;32.35;101934.03;4978976;28;45155;-62
2022/03/28 02:39:37;;;;;;;;;52.50;39.75;;;;;14.77;32.58;101935.81;4978492;28;45485;-62
2022/03/28 02:42:04;;;;;;;;;48.75;39.00;;;;;14.73;32.31;101935.00;4978817;28;45405;-62
2022/03/28 02:44:29;;;;;;;;;47.00;38.50;;;;;14.70;33.03;101934.16;4989144;28;45423;-62
2022/03/28 02:46:55;;;;;;;;;48.75;40.00;;;;;14.68;32.81;101927.97;4958323;28;45309;-62
2022/03/28 02:49:20;;;;;;;;;49.50;38.25;;;;;14.64;32.96;101919.22;4957826;28;45902;-62
2022/03/28 02:51:46;;;;;;;;;50.25;40.25;;;;;14.58;32.88;101917.50;4974123;28;45483;-62
2022/03/28 02:54:12;;;;;;;;;52.25;40.00;;;;;14.59;32.86;101929.84;4959114;28;45322;-63
2022/03/28 02:56:37;;;;;;;;;46.75;38.25;;;;;14.56;33.12;101916.63;4959521;28;45406;-62
2022/03/28 02:59:02;;;;;;;;;44.75;36.50;;;;;14.47;32.92;101914.09;4957820;28;45344;-62
2022/03/28 03:01:28;;;;;;;;;49.00;39.25;;;;;14.51;33.22;101917.59;4959088;28;45446;-63
2022/03/28 03:03:53;;;;;;;;;45.50;37.75;;;;;14.47;33.08;101903.53;4957777;28;45304;-62
2022/03/28 03:06:19;;;;;;;;;46.25;36.75;;;;;14.43;33.11;101904.47;4958093;28;45413;-63
2022/03/28 03:08:44;;;;;;;;;48.25;37.25;;;;;14.44;33.50;101909.72;4973872;28;45327;-62
2022/03/28 03:11:10;;;;;;;;;46.00;38.25;;;;;14.41;33.44;101900.94;4957396;28;46006;-62
2022/03/28 03:13:38;;;;;;;;;50.00;41.50;;;;;14.39;33.13;101900.09;4957703;28;45263;-62
2022/03/28 03:16:04;;;;;;;;;44.50;36.75;;;;;14.35;33.37;101895.72;4959239;28;45380;-62
2022/03/28 03:18:29;;;;;;;;;45.75;37.00;;;;;14.30;33.47;101890.50;4963365;28;45372;-62
2022/03/28 03:20:55;;;;;;;;;41.25;34.00;;;;;14.26;33.52;101894.06;4978127;28;45299;-62
2022/03/28 03:23:20;;;;;;;;;44.50;36.25;;;;;14.26;33.67;101889.69;4978109;28;45365;-62
2022/03/28 03:25:46;;;;;;;;;50.00;39.50;;;;;14.23;33.68;101891.47;4977349;28;45249;-62
2022/03/28 03:28:11;;;;;;;;;53.00;40.00;;;;;14.20;33.64;101895.03;4978282;28;45363;-62
2022/03/28 03:30:37;;;;;;;;;46.25;37.25;;;;;14.18;33.40;101888.00;4978235;28;47011;-61
2022/03/28 03:33:02;;;;;;;;;48.75;39.75;;;;;14.13;33.60;101890.69;4978186;28;45407;-62
2022/03/28 03:35:27;;;;;;;;;47.50;39.50;;;;;14.09;33.96;101879.28;4978450;28;45352;-61
2022/03/28 03:37:53;;;;;;;;;46.50;39.00;;;;;14.09;33.75;101888.97;4976645;28;45659;-62
2022/03/28 03:40:18;;;;;;;;;47.00;39.50;;;;;14.06;33.73;101883.72;4977927;28;45237;-61
2022/03/28 03:42:44;;;;;;;;;44.25;36.25;;;;;14.03;34.11;101886.41;4978085;28;45438;-61
2022/03/28 03:45:10;;;;;;;;;48.75;38.25;;;;;14.00;33.82;101883.78;4974373;28;45265;-61
2022/03/28 03:47:36;;;;;;;;;46.25;37.50;;;;;13.97;33.96;101888.22;4958591;28;45399;-62
2022/03/28 03:50:04;;;;;;;;;50.25;41.00;;;;;13.94;33.93;101884.72;4958509;28;45796;-61
2022/03/28 03:52:30;;;;;;;;;48.25;40.25;;;;;13.91;33.93;101883.00;4958441;28;45519;-61
2022/03/28 03:54:55;;;;;;;;;49.25;39.75;;;;;13.89;34.28;101889.19;4958617;28;45242;-61
2022/03/28 03:57:21;;;;;;;;;51.75;38.50;;;;;13.87;34.20;101885.66;4958507;28;45310;-62
2022/03/28 03:59:46;;;;;;;;;45.25;38.00;;;;;13.84;34.50;101885.72;4958409;28;45417;-61
2022/03/28 04:02:11;;;;;;;;;47.00;40.00;;;;;13.80;34.31;101877.81;4958276;28;45243;-62
2022/03/28 04:04:37;;;;;;;;;47.25;37.75;;;;;13.77;34.45;101884.88;4958708;28;45299;-62
2022/03/28 04:07:02;;;;;;;;;51.25;40.25;;;;;13.77;34.58;101890.16;4958121;28;45628;-62
2022/03/28 04:09:28;;;;;;;;;46.25;39.00;;;;;13.74;34.61;101891.06;4973155;28;45225;-62
2022/03/28 04:11:53;;;;;;;;;52.75;41.50;;;;;13.68;34.38;101885.84;4957969;28;45459;-62
2022/03/28 04:14:19;;;;;;;;;49.50;39.75;;;;;13.69;34.68;101884.09;4958542;28;45232;-61
2022/03/28 04:16:44;;;;;;;;;52.50;40.00;;;;;13.68;34.52;101887.63;4958142;28;45423;-61
2022/03/28 04:19:09;;;;;;;;;47.00;39.25;;;;;13.64;35.02;101886.75;4968031;28;45264;-61
2022/03/28 04:21:35;;;;;;;;;47.50;38.50;;;;;13.63;35.01;101895.56;4977507;28;45251;-61
2022/03/28 04:24:00;;;;;;;;;49.00;39.25;;;;;13.60;34.79;101883.25;4977463;28;45442;-61
2022/03/28 04:26:26;;;;;;;;;44.50;36.75;;;;;13.56;34.79;101883.28;4976456;28;45241;-63
2022/03/28 04:28:51;;;;;;;;;47.00;38.75;;;;;13.46;34.83;101875.47;4976241;28;47045;-62
2022/03/28 04:31:16;;;;;;;;;46.50;38.50;;;;;13.52;34.95;101886.84;4977550;28;45423;-62
2022/03/28 04:33:42;;;;;;;;;45.75;38.75;;;;;13.51;34.83;101887.75;4977543;28;45675;-63
2022/03/28 04:36:07;;;;;;;;;48.00;37.00;;;;;13.48;35.10;101892.19;4977433;28;45445;-63
2022/03/28 04:38:33;;;;;;;;;48.00;40.00;;;;;13.47;35.36;101894.81;4977120;28;47068;-63
2022/03/28 04:40:59;;;;;;;;;49.50;40.25;;;;;13.45;35.12;101886.91;4977115;28;45332;-62
2022/03/28 04:43:24;;;;;;;;;49.75;40.00;;;;;13.43;35.23;101888.69;4976294;28;45304;-62
2022/03/28 04:45:49;;;;;;;;;42.25;35.00;;;;;13.42;35.24;101888.69;4974936;28;45347;-63
2022/03/28 04:48:15;;;;;;;;;47.25;36.00;;;;;13.40;35.29;101882.56;4957796;28;45340;-62
2022/03/28 04:50:40;;;;;;;;;48.75;39.25;;;;;13.36;35.54;101886.97;4957697;28;45233;-62
2022/03/28 04:53:06;;;;;;;;;47.50;39.00;;;;;13.34;35.58;101883.44;4957614;28;45309;-62
2022/03/28 04:55:31;;;;;;;;;45.75;38.00;;;;;13.34;35.62;101883.44;4957336;28;45490;-63
2022/03/28 04:57:57;;;;;;;;;47.75;38.50;;;;;13.32;35.64;101877.31;4960627;28;45291;-63
2022/03/28 05:00:22;;;;;;;;;46.50;38.50;;;;;13.29;35.61;101882.59;4960468;28;45241;-62
2022/03/28 05:02:48;;;;;;;;;47.00;37.00;;;;;13.26;35.88;101886.13;4960769;28;45979;-62
2022/03/28 05:05:14;;;;;;;;;47.25;39.00;;;;;13.26;35.82;101882.63;4960624;28;45228;-63
2022/03/28 05:07:40;;;;;;;;;47.75;39.00;;;;;13.24;36.06;101876.47;4960284;28;45252;-63
2022/03/28 05:10:06;;;;;;;;;76.00;64.67;;;;;13.21;36.15;101873.88;4960236;28;45439;-63
2022/03/28 05:12:32;;;;;;;;;57.00;44.75;;;;;13.20;35.88;101872.13;4960702;28;45527;-63
2022/03/28 05:14:58;;;;;;;;;52.25;43.25;;;;;13.20;36.14;101870.34;4960569;28;45324;-63
2022/03/28 05:17:25;;;;;;;;;52.00;40.50;;;;;13.20;36.05;101872.13;4960307;28;46248;-62
2022/03/28 05:19:51;;;;;;;;;49.25;40.00;;;;;13.19;36.16;101873.00;4975483;28;45384;-64
2022/03/28 05:22:17;;;;;;;;;47.25;39.00;;;;;13.16;36.23;101869.47;4979795;28;45417;-64
2022/03/28 05:24:43;;;;;;;;;51.75;41.25;;;;;13.15;36.17;101867.72;4979765;28;45291;-64
2022/03/28 05:27:08;;;;;;;;;51.25;38.00;;;;;13.14;36.38;101868.66;4979765;28;46045;-64
2022/03/28 05:29:34;;;;;;;;;51.75;39.50;;;;;13.11;36.38;101870.41;4979558;28;45472;-63
2022/03/28 05:31:59;;;;;;;;;52.25;41.75;;;;;13.09;36.59;101864.25;4978662;28;45196;-64
2022/03/28 05:34:25;;;;;;;;;52.00;41.25;;;;;13.10;36.64;101868.66;4994761;28;45327;-64
2022/03/28 05:36:50;;;;;;;;;49.00;39.25;;;;;13.07;36.59;101866.03;4961921;28;47013;-64
2022/03/28 05:39:16;;;;;;;;;56.50;41.00;;;;;13.08;36.76;101865.16;4978061;28;45202;-64
2022/03/28 05:41:41;;;;;;;;;50.00;39.00;;;;;13.05;36.97;101865.19;4979773;28;45360;-63
2022/03/28 05:44:06;;;;;;;;;49.50;40.75;;;;;13.01;36.94;101865.19;4990443;28;45178;-64
2022/03/28 05:46:32;;;;;;;;;51.50;42.50;;;;;13.05;37.08;101868.69;4960019;28;47083;-63
2022/03/28 05:48:57;;;;;;;;;54.75;44.00;;;;;13.04;37.30;101871.34;4960159;28;45268;-64
2022/03/28 05:51:23;;;;;;;;;52.75;41.50;;;;;13.05;37.12;101878.38;4958864;28;45408;-64
2022/03/28 05:53:49;;;;;;;;;50.25;41.25;;;;;13.05;37.15;101875.75;4959669;28;46332;-64
2022/03/28 05:56:14;;;;;;;;;51.50;41.25;;;;;13.02;37.07;101868.72;4974977;28;45954;-64
2022/03/28 05:58:39;;;;;;;;;55.50;44.00;;;;;13.03;37.47;101861.66;4958536;28;45906;-64
2022/03/28 06:01:05;;;;;;;;;46.50;35.75;;;;;13.06;37.43;101865.16;4958833;28;45347;-65
2022/03/28 06:03:30;;;;;;;;;52.50;42.25;;;;;13.02;37.56;101860.81;4973042;28;45580;-64
2022/03/28 06:05:56;;;;;;;;;53.25;43.75;;;;;13.06;37.51;101864.31;4959963;28;46122;-64
2022/03/28 06:08:21;;;;;;;;;52.50;44.00;;;;;13.03;37.60;101861.66;4957563;28;45362;-65
2022/03/28 06:10:47;;;;;;;;;52.50;43.25;;;;;13.07;37.67;101866.03;4958352;28;45256;-63
2022/03/28 06:13:13;;;;;;;;;49.75;38.50;;;;;13.05;37.50;101870.47;4959721;28;45360;-63
2022/03/28 06:15:38;;;;;;;;;48.00;40.25;;;;;13.07;37.75;101871.31;4959792;28;45208;-63
2022/03/28 06:18:05;;;;;;;;;50.75;41.25;;;;;13.06;37.78;101869.56;4960632;28;45213;-63
2022/03/28 06:20:31;;;;;;;;;51.50;41.75;;;;;13.06;37.74;101869.56;4979192;28;45387;-63
2022/03/28 06:22:57;;;;;;;;;53.25;42.50;;;;;13.06;37.72;101877.50;4978900;28;45311;-63
2022/03/28 06:25:22;;;;;;;;;57.50;44.00;;;;;13.06;37.93;101872.22;4978929;28;46025;-63
2022/03/28 06:27:48;;;;;;;;;52.75;43.75;;;;;13.07;38.09;101868.66;4977860;28;45687;-63
2022/03/28 06:30:14;;;;;;;;;53.25;43.00;;;;;13.00;38.08;101858.19;4979150;28;45361;-64
2022/03/28 06:32:40;;;;;;;;;56.00;44.00;;;;;13.08;38.14;101871.31;4978968;28;45442;-64
2022/03/28 06:35:07;;;;;;;;;52.75;42.50;;;;;13.09;38.23;101864.25;4969889;28;45381;-63
2022/03/28 06:37:34;;;;;;;;;57.50;45.50;;;;;13.09;38.22;101861.63;4973860;28;45252;-63
2022/03/28 06:39:59;;;;;;;;;55.25;43.50;;;;;13.08;38.23;101859.88;4978941;28;45262;-63
2022/03/28 06:42:26;;;;;;;;;78.75;64.00;;;;;13.09;38.50;101862.50;4964721;28;45485;-63
2022/03/28 06:44:51;;;;;;;;;54.50;44.00;;;;;13.08;38.32;101860.75;4980300;28;45265;-63
2022/03/28 06:47:17;;;;;;;;;57.25;44.25;;;;;13.09;38.46;101867.78;4957963;28;45391;-64
2022/03/28 06:49:42;;;;;;;;;66.50;48.50;;;;;13.10;38.29;101861.59;4958211;28;45324;-63
2022/03/28 06:52:08;;;;;;;;;57.50;47.00;;;;;13.11;38.42;101865.16;4959018;28;45382;-63
2022/03/28 06:54:35;;;;;;;;;58.00;46.50;;;;;13.10;38.64;101864.25;4959136;28;45431;-63
2022/03/28 06:57:02;;;;;;;;;54.00;44.50;;;;;13.08;38.32;101854.59;4958923;28;45379;-63
2022/03/28 06:59:27;;;;;;;;;61.75;46.25;;;;;13.12;38.84;101856.34;4957998;28;45432;-63
2022/03/28 07:01:54;;;;;;;;;56.00;45.25;;;;;13.11;38.66;101859.88;4957818;28;45289;-62
2022/03/28 07:04:20;;;;;;;;;57.25;44.75;;;;;13.14;39.03;101858.09;4959106;28;45275;-62
2022/03/28 07:06:46;;;;;;;;;55.00;44.75;;;;;13.14;38.76;101858.09;4958838;28;45329;-62
2022/03/28 07:09:11;;;;;;;;;60.75;45.25;;;;;13.15;38.77;101861.59;4959057;28;45250;-62
2022/03/28 07:11:37;;;;;;;;;55.50;44.00;;;;;13.18;39.01;101856.28;4958913;28;45592;-64
2022/03/28 07:14:02;;;;;;;;;60.50;46.50;;;;;13.18;39.00;101845.72;4958919;28;46093;-64
2022/03/28 07:16:28;;;;;;;;;59.75;46.50;;;;;13.19;38.84;101843.97;4957669;28;45404;-64
2022/03/28 07:18:53;;;;;;;;;61.00;47.50;;;;;13.21;38.94;101843.06;4965315;28;45465;-64
2022/03/28 07:21:19;;;;;;;;;56.00;44.00;;;;;13.22;39.15;101844.81;4978273;28;45372;-63
2022/03/28 07:23:44;;;;;;;;;59.25;46.00;;;;;13.22;39.40;101839.53;4978131;28;45402;-64
2022/03/28 07:26:10;;;;;;;;;59.25;46.50;;;;;13.26;39.05;101838.63;4978386;28;45367;-64
2022/03/28 07:28:39;;;;;;;;;62.00;47.25;;;;;13.28;39.37;101838.59;4978486;28;45389;-63
2022/03/28 07:31:08;;;;;;;;;60.25;46.25;;;;;13.29;39.36;101835.94;4978296;27;45385;-64
2022/03/28 07:33:41;;;;;;;;;61.50;48.25;;;;;13.33;39.21;101836.81;4978336;28;46187;-64
2022/03/28 07:36:08;;;;;;;;;56.50;46.75;;;;;13.34;39.37;101833.28;4978249;28;45311;-64
2022/03/28 07:38:34;;;;;;;;;58.50;46.25;;;;;13.37;39.54;101841.22;4976874;28;45313;-64
2022/03/28 07:41:00;;;;;;;;;56.00;45.00;;;;;13.44;39.52;101834.97;4978003;28;45408;-64
2022/03/28 07:43:26;;;;;;;;;57.75;45.75;;;;;13.48;39.47;101830.56;4976886;28;47460;-63
2022/03/28 07:45:54;;;;;;;;;56.50;43.50;;;;;13.52;39.47;101829.66;4973094;28;45305;-63
2022/03/28 07:48:22;;;;;;;;;57.25;45.25;;;;;13.53;39.82;101820.81;4958718;28;45252;-63
2022/03/28 07:50:49;;;;;;;;;59.50;45.50;;;;;13.59;39.47;101826.03;4958502;28;45433;-62
2022/03/28 07:53:14;;;;;;;;;60.75;45.25;;;;;13.63;39.58;101826.91;4958431;28;45506;-62
2022/03/28 07:55:41;;;;;;;;;62.25;49.50;;;;;13.69;39.69;101825.97;4958314;28;45387;-62
2022/03/28 07:58:08;;;;;;;;;56.25;45.25;;;;;13.76;39.42;101827.63;4958756;28;45351;-62
2022/03/28 08:00:34;;;;;;;;;54.50;43.75;;;;;13.81;39.66;101831.09;4957041;28;45553;-62
2022/03/28 08:03:00;;;;;;;;;61.75;49.00;;;;;13.87;39.86;101822.25;4957205;28;48216;-63
2022/03/28 08:05:27;;;;;;;;;59.75;45.25;;;;;13.93;39.69;101830.13;4958346;28;45346;-63
2022/03/28 08:07:53;;;;;;;;;62.50;47.25;;;;;13.98;39.83;101820.38;4958363;28;45506;-63
2022/03/28 08:10:20;;;;;;;;;57.25;46.00;;;;;14.06;39.75;101826.47;4972907;28;45501;-62
2022/03/28 08:12:46;;;;;;;;;62.75;47.75;;;;;14.12;39.93;101829.03;4956971;28;45450;-63
2022/03/28 08:15:13;;;;;;;;;62.75;48.50;;;;;14.19;40.10;101821.00;4956936;28;45340;-62
2022/03/28 08:17:39;;;;;;;;;59.25;45.25;;;;;14.28;39.65;101828.84;4958385;28;45256;-63
2022/03/28 08:20:09;;;;;;;;;59.00;46.50;;;;;14.34;39.68;101831.41;4975078;28;45458;-63
2022/03/28 08:22:38;;;;;;;;;60.00;48.00;;;;;14.42;40.13;101833.97;4976049;28;46896;-63
2022/03/28 08:25:04;;;;;;;;;56.00;44.50;;;;;14.51;39.67;101839.13;4976093;28;45903;-63
2022/03/28 08:27:30;;;;;;;;;63.00;46.50;;;;;14.58;39.74;101832.00;4977795;28;45182;-63
2022/03/28 08:29:55;;;;;;;;;62.25;47.25;;;;;14.66;39.77;101839.84;4975569;28;45970;-64
2022/03/28 08:32:21;;;;;;;;;57.00;44.50;;;;;14.74;39.71;101837.94;4977500;28;45355;-63
2022/03/28 08:34:48;;;;;;;;;61.75;46.75;;;;;14.81;39.86;101826.41;4977401;28;45185;-63
2022/03/28 08:37:16;;;;;;;;;55.50;43.25;;;;;14.87;40.04;101822.81;4977323;28;45416;-62
2022/03/28 08:39:45;;;;;;;;;57.50;45.75;;;;;14.97;39.77;101815.56;4957948;28;45382;-62
2022/03/28 08:42:12;;;;;;;;;64.25;49.00;;;;;15.06;39.62;101812.78;4957781;28;45377;-63
2022/03/28 08:44:41;;;;;;;;;55.50;45.50;;;;;15.12;39.70;101804.75;4966619;28;45367;-63
2022/03/28 08:47:09;;;;;;;;;59.00;45.75;;;;;15.24;40.06;101807.22;4957849;28;45317;-63
2022/03/28 08:49:38;;;;;;;;;59.00;46.25;;;;;15.33;39.94;101800.00;4957739;28;45523;-62
2022/03/28 08:52:06;;;;;;;;;64.00;50.00;;;;;15.41;40.23;101808.69;4957349;28;46372;-62
2022/03/28 08:54:32;;;;;;;;;61.25;46.75;;;;;15.50;39.65;101794.41;4957860;28;45315;-63
2022/03/28 08:56:58;;;;;;;;;58.50;46.75;;;;;15.62;40.08;101807.41;4957677;28;45233;-62
2022/03/28 08:59:23;;;;;;;;;61.25;49.00;;;;;15.72;40.12;101811.66;4956366;28;45462;-62
2022/03/28 09:01:50;;;;;;;;;61.75;49.25;;;;;15.83;40.13;101800.88;4957425;28;45220;-63
2022/03/28 09:04:15;;;;;;;;;58.50;47.00;;;;;15.93;39.82;101797.13;4957661;28;45155;-62
2022/03/28 09:06:45;;;;;;;;;61.00;47.75;;;;;16.04;39.84;101796.94;4957315;28;45286;-62
2022/03/28 09:09:22;;;;;;;;;59.25;46.25;;;;;16.16;39.74;101793.16;4957381;28;45490;-62
2022/03/28 09:11:56;;;;;;;;;55.00;42.75;;;;;16.27;39.67;101798.22;4957100;28;45244;-62
2022/03/28 09:14:30;;;;;;;;;59.25;46.75;;;;;16.38;39.84;101795.34;4956162;28;45303;-62
2022/03/28 09:17:04;;;;;;;;;52.75;43.00;;;;;16.53;39.59;101802.09;4957455;28;45329;-62
2022/03/28 09:19:52;;;;;;;;;58.00;47.00;;;;;16.68;39.60;101800.88;4969666;28;46518;-62
2022/03/28 09:22:23;;;;;;;;;60.50;47.25;;;;;16.84;39.48;101804.03;4976511;28;47472;-63
2022/03/28 09:24:51;;;;;;;;;49.00;41.50;;;;;17.00;39.51;101793.97;4976526;28;45442;-63
2022/03/28 09:27:22;;;;;;;;;56.00;43.00;;;;;17.16;39.65;101797.97;4975664;28;45331;-63
2022/03/28 09:30:19;;;;;;;;;51.25;42.50;;;;;17.35;39.16;101800.19;4976433;28;45366;-63
2022/03/28 09:32:52;;;;;;;;;49.00;41.00;;;;;17.51;39.42;101785.56;4975820;27;47457;-62
2022/03/28 09:35:23;;;;;;;;;50.75;40.75;;;;;17.67;39.73;101791.34;4976525;28;45443;-61
2022/03/28 09:38:01;;;;;;;;;54.00;40.25;;;;;17.82;38.88;101795.38;4976222;28;45237;-61
2022/03/28 09:40:44;;;;;;;;;41.75;33.00;;;;;17.97;39.21;101790.56;4976201;27;45421;-62
2022/03/28 09:43:12;;;;;;;;;47.75;40.25;;;;;18.13;38.91;101788.34;4977144;28;46646;-64
2022/03/28 09:45:39;;;;;;;;;46.75;40.00;;;;;18.27;38.64;101783.47;4975263;28;45315;-62
2022/03/28 09:48:07;;;;;;;;;46.25;37.75;;;;;18.44;38.80;101776.75;4958873;28;45433;-62
2022/03/28 09:50:38;;;;;;;;;49.25;39.75;;;;;18.59;38.86;101778.97;4958565;28;45264;-61
2022/03/28 09:53:12;;;;;;;;;52.75;41.75;;;;;18.76;38.59;101773.09;4959696;28;46484;-62
2022/03/28 09:55:46;;;;;;;;;54.00;40.50;;;;;18.94;38.35;101766.34;4959853;28;45339;-63
2022/03/28 09:58:30;;;;;;;;;51.00;41.25;;;;;19.22;38.55;101764.53;4960051;28;45321;-62
2022/03/28 10:00:56;;;;;;;;;55.75;44.25;;;;;19.47;38.72;101760.09;4959705;28;45228;-62
2022/03/28 10:03:22;;;;;;;;;52.25;39.25;;;;;19.76;38.69;101752.84;4959905;28;46161;-63
2022/03/28 10:05:48;;;;;;;;;49.50;37.75;;;;;20.02;38.39;101758.16;4959855;28;45312;-62
2022/03/28 10:08:14;;;;;;;;;47.25;36.75;;;;;20.24;38.59;101751.06;4959790;28;45277;-61
2022/03/28 10:10:40;;;;;;;;;51.25;39.50;;;;;20.43;38.38;101750.34;4958327;28;45553;-62
2022/03/28 10:13:07;;;;;;;;;48.75;38.25;;;;;20.63;38.07;101749.53;4958466;28;47091;-62
2022/03/28 10:15:32;;;;;;;;;45.50;36.00;;;;;20.77;37.63;101747.19;4959667;28;45236;-61
2022/03/28 10:17:58;;;;;;;;;44.75;37.00;;;;;20.90;37.46;101744.88;4959891;28;45413;-61
2022/03/28 10:20:24;;;;;;;;;48.50;39.25;;;;;21.07;37.42;101746.00;4979336;28;45217;-63
2022/03/28 10:22:53;;;;;;;;;41.75;36.25;;;;;21.21;37.13;101742.72;4978666;28;46230;-62
2022/03/28 10:25:22;;;;;;;;;46.50;36.75;;;;;21.38;37.55;101740.19;4978978;27;45397;-63
2022/03/28 10:27:51;;;;;;;;;47.75;38.50;;;;;21.53;37.20;101740.44;4979199;28;45295;-63
2022/03/28 10:30:22;;;;;;;;;47.50;36.50;;;;;21.69;37.31;101735.31;4979002;28;45336;-63
2022/03/28 10:33:07;;;;;;;;;45.50;36.25;;;;;21.87;37.13;101729.13;4978862;28;46174;-63
2022/03/28 10:35:32;;;;;;;;;45.00;37.00;;;;;22.04;36.63;101716.75;4978946;28;45256;-63
2022/03/28 10:38:14;;;;;;;;;44.75;36.00;;;;;22.24;36.58;101726.53;4978746;28;45266;-63
2022/03/28 10:40:52;;;;;;;;;36.75;29.50;;;;;22.45;36.46;101707.69;4978644;28;45491;-63
2022/03/28 10:43:18;;;;;;;;;43.00;35.50;;;;;22.60;36.37;101698.03;4978709;28;45695;-63
2022/03/28 10:45:58;;;;;;;;;42.50;34.00;;;;;22.78;36.46;101702.47;4972507;28;45261;-63
2022/03/28 10:48:54;;;;;;;;;41.50;35.00;;;;;23.03;36.57;101691.38;4959532;28;45497;-63
2022/03/28 10:51:21;;;;;;;;;43.25;33.50;;;;;23.31;36.19;101689.94;4967486;28;45422;-63
2022/03/28 10:53:51;;;;;;;;;47.50;33.50;;;;;23.59;36.31;101684.94;4978364;28;45967;-63
2022/03/28 10:56:18;;;;;;;;;35.50;32.25;;;;;23.91;35.79;101682.28;4978927;28;45236;-63
2022/03/28 10:58:53;;;;;;;;;43.00;34.00;;;;;24.24;35.90;101679.53;4977327;28;45462;-63
2022/03/28 11:01:31;;;;;;;;;37.75;32.00;;;;;24.62;35.61;101673.75;4977259;28;45369;-63
2022/03/28 11:04:04;;;;;;;;;39.50;30.75;;;;;25.02;35.65;101669.66;4978415;28;45419;-62
2022/03/28 11:06:49;;;;;;;;;36.00;31.50;;;;;25.44;35.72;101676.09;4977030;28;45448;-62
2022/03/28 11:09:32;;;;;;;;;34.00;30.00;;;;;25.82;34.83;101661.16;4978507;28;45380;-63
2022/03/28 11:12:04;;;;;;;;;33.00;30.25;;;;;26.27;35.35;101665.38;4976885;28;45398;-63